This is the latest recevied weather packets stored in our database for station/object KJ5FA-10. If no packets are shown the sender has not sent any weather packets the latest 10 day(s).
| Time | Temp. | Humidity | Pressure | Rain* | Wind** | Luminosity | Snow |
|---|---|---|---|---|---|---|---|
| 1787849685 | 30.56° C | 53% | 1017.6 hPa | 0 mm | - | - | - |
| 1787848785 | 30° C | 54% | 1017.9 hPa | 0 mm | - | - | - |
| 1787847885 | 29.44° C | 57% | 1018.1 hPa | 0 mm | - | - | - |
| 1787846984 | 28.89° C | 61% | 1017.9 hPa | 0 mm | - | - | - |
| 1787846085 | 27.78° C | 63% | 1018.1 hPa | 0 mm | - | - | - |
| 1787845183 | 26.67° C | 65% | 1018 hPa | 0 mm | - | - | - |
| 1787843383 | 25.56° C | 77% | 1017.9 hPa | 0 mm | - | - | - |
| 1787841584 | 23.89° C | 85% | 1018.3 hPa | 0 mm | - | - | - |
| 1787840684 | 23.33° C | 88% | 1018.4 hPa | 0 mm | - | - | - |
| 1787839785 | 22.22° C | 91% | 1018.3 hPa | 0 mm | - | - | - |
| 1787838884 | 21.67° C | 94% | 1017.9 hPa | 0 mm | - | - | - |
| 1787837085 | 20.56° C | 97% | 1017.6 hPa | 0 mm | - | - | - |
| 1787836184 | 20.56° C | 97% | 1017.8 hPa | 0 mm | - | - | - |
| 1787835283 | 20° C | 98% | 1017.8 hPa | 0 mm | - | - | - |
| 1787834383 | 20° C | 98% | 1017.5 hPa | 0 mm | - | - | - |
| 1787833483 | 20° C | 98% | 1017.4 hPa | 0 mm | - | - | - |
| 1787832583 | 20° C | 98% | 1017.1 hPa | 0 mm | - | - | - |
| 1787830783 | 20° C | 98% | 1016.8 hPa | 0 mm | - | - | - |
| 1787829883 | 20° C | 98% | 1016.7 hPa | 0 mm | - | - | - |
| 1787828983 | 20° C | 98% | 1016.6 hPa | 0 mm | - | - | - |
| 1787828084 | 20° C | 98% | 1016.3 hPa | 0 mm | - | - | - |
| 1787827183 | 20.56° C | 98% | 1016.5 hPa | 0 mm | - | - | - |
| 1787826284 | 20.56° C | 98% | 1016.4 hPa | 0 mm | - | - | - |
| 1787825383 | 20.56° C | 98% | 1016.5 hPa | 0 mm | - | - | - |
| 1787824483 | 20.56° C | 97% | 1016.7 hPa | 0 mm | - | - | - |
* Rain latest hour (hover to see other rain measurements)
** Current wind speed in m/s (hover to see current wind gust speed)